createdAt,value
2023-02-26T00:01:41.765Z,95454.53
2023-02-26T00:04:11.121Z,95462.50
2023-02-26T00:06:53.533Z,95467.53
2023-02-26T00:09:25.057Z,95463.03
2023-02-26T00:11:54.724Z,95460.38
2023-02-26T00:14:23.126Z,95467.03
2023-02-26T00:16:56.870Z,95458.78
2023-02-26T00:19:25.028Z,95466.78
2023-02-26T00:21:53.373Z,95460.38
2023-02-26T00:24:21.157Z,95461.72
2023-02-26T00:26:49.019Z,95465.16
2023-02-26T00:29:18.972Z,95478.97
2023-02-26T00:31:47.319Z,95465.44
2023-02-26T00:34:15.857Z,95468.34
2023-02-26T00:36:51.776Z,95470.22
2023-02-26T00:39:36.636Z,95471.56
2023-02-26T00:42:05.034Z,95470.50
2023-02-26T00:44:35.754Z,95471.81
2023-02-26T00:47:10.865Z,95477.13
2023-02-26T00:49:51.162Z,95476.31
2023-02-26T00:52:29.177Z,95480.03
2023-02-26T00:54:56.988Z,95482.72
2023-02-26T00:57:24.828Z,95477.94
2023-02-26T00:59:53.996Z,95474.72
2023-02-26T01:02:22.020Z,95480.03
2023-02-26T01:04:50.454Z,95468.91
2023-02-26T01:07:23.556Z,95474.47
2023-02-26T01:09:52.248Z,95474.72
2023-02-26T01:12:20.447Z,95472.06
2023-02-26T01:14:50.430Z,95484.84
2023-02-26T01:17:24.833Z,95483.50
2023-02-26T01:19:55.440Z,95484.81
2023-02-26T01:22:29.559Z,95481.41
2023-02-26T01:25:02.701Z,95484.28
2023-02-26T01:27:31.183Z,95485.63
2023-02-26T01:30:00.102Z,95489.38
2023-02-26T01:32:40.761Z,95484.28
2023-02-26T01:35:16.163Z,95486.94
2023-02-26T01:37:52.712Z,95493.59
2023-02-26T01:40:44.301Z,95485.91
2023-02-26T01:43:18.544Z,95482.72
2023-02-26T01:46:04.001Z,95483.22
2023-02-26T01:48:38.577Z,95486.44
2023-02-26T01:51:06.848Z,95482.19
2023-02-26T01:53:34.652Z,95493.84
2023-02-26T01:56:06.381Z,95489.06
2023-02-26T01:58:36.890Z,95487.19
2023-02-26T02:01:05.375Z,95495.97
2023-02-26T02:03:38.292Z,95502.31
2023-02-26T02:06:09.256Z,95495.44
2023-02-26T02:08:38.985Z,95494.13
2023-02-26T02:11:12.293Z,95498.59
2023-02-26T02:13:56.917Z,95496.44
2023-02-26T02:16:35.785Z,95500.16
2023-02-26T02:19:19.647Z,95497.75
2023-02-26T02:22:03.325Z,95498.28
2023-02-26T02:24:40.010Z,95505.47
2023-02-26T02:27:16.497Z,95509.19
2023-02-26T02:30:18.184Z,95509.91
2023-02-26T02:32:50.578Z,95506.16
2023-02-26T02:35:24.132Z,95513.06
2023-02-26T02:37:57.550Z,95508.06
2023-02-26T02:40:29.461Z,95509.91
2023-02-26T02:43:01.955Z,95520.25
2023-02-26T02:45:39.331Z,95519.19
2023-02-26T02:48:13.380Z,95521.34
2023-02-26T02:50:46.904Z,95524.00
2023-02-26T02:53:19.725Z,95523.66
2023-02-26T02:55:52.604Z,95521.31
2023-02-26T02:58:24.673Z,95518.66
2023-02-26T03:00:57.779Z,95522.34
2023-02-26T03:03:32.962Z,95530.28
2023-02-26T03:06:01.053Z,95534.00
2023-02-26T03:08:32.358Z,95531.38
2023-02-26T03:11:00.092Z,95533.50
2023-02-26T03:13:28.213Z,95535.09
2023-02-26T03:16:20.097Z,95539.09
2023-02-26T03:19:05.854Z,95528.66
2023-02-26T03:21:45.454Z,95551.16
2023-02-26T03:24:26.227Z,95544.31
2023-02-26T03:26:59.483Z,95560.28
2023-02-26T03:29:36.554Z,95561.59
2023-02-26T03:32:08.416Z,95564.28
2023-02-26T03:34:42.437Z,95562.69
2023-02-26T03:37:21.212Z,95571.72
2023-02-26T03:39:53.808Z,95569.84
2023-02-26T03:42:25.556Z,95571.94
2023-02-26T03:45:04.801Z,95576.69
2023-02-26T03:47:36.077Z,95582.16
2023-02-26T03:50:09.502Z,95576.38
2023-02-26T03:52:49.786Z,95584.50
2023-02-26T03:55:42.370Z,95587.50
2023-02-26T03:58:46.539Z,95590.72
2023-02-26T04:01:34.208Z,95600.53
2023-02-26T04:04:06.993Z,95587.94
2023-02-26T04:06:36.747Z,95594.13
2023-02-26T04:09:07.661Z,95600.53
2023-02-26T04:11:39.297Z,95603.16
2023-02-26T04:14:07.488Z,95611.63
2023-02-26T04:16:39.990Z,95613.53
2023-02-26T04:19:07.946Z,95613.22
2023-02-26T04:21:37.491Z,95616.81
2023-02-26T04:24:07.150Z,95616.78
2023-02-26T04:26:36.252Z,95624.44
2023-02-26T04:29:04.080Z,95620.72
2023-02-26T04:31:32.049Z,95623.91
2023-02-26T04:34:00.576Z,95624.22
2023-02-26T04:36:28.549Z,95636.13
2023-02-26T04:39:00.431Z,95635.53
2023-02-26T04:41:28.512Z,95636.97
2023-02-26T04:43:56.418Z,95630.56
2023-02-26T04:46:30.175Z,95637.25
2023-02-26T04:48:58.594Z,95638.03
2023-02-26T04:51:26.510Z,95638.78
2023-02-26T04:53:54.329Z,95640.75
2023-02-26T04:56:23.922Z,95632.72
2023-02-26T04:58:51.897Z,95639.66
2023-02-26T05:01:25.513Z,95638.38
2023-02-26T05:03:53.431Z,95651.59
2023-02-26T05:06:21.818Z,95645.19
2023-02-26T05:08:49.667Z,95646.56
2023-02-26T05:11:18.671Z,95643.28
2023-02-26T05:13:52.555Z,95645.38
2023-02-26T05:16:20.416Z,95646.28
2023-02-26T05:18:48.274Z,95652.44
2023-02-26T05:21:16.056Z,95652.75
2023-02-26T05:23:43.842Z,95652.47
2023-02-26T05:26:11.643Z,95658.84
2023-02-26T05:28:39.632Z,95655.25
2023-02-26T05:31:09.089Z,95663.78
2023-02-26T05:33:36.880Z,95655.53
2023-02-26T05:36:04.878Z,95652.88
2023-02-26T05:38:32.877Z,95662.72
2023-02-26T05:41:00.960Z,95665.47
2023-02-26T05:43:29.028Z,95667.38
2023-02-26T05:45:56.836Z,95677.56
2023-02-26T05:48:26.085Z,95667.47
2023-02-26T05:50:53.866Z,95677.44
2023-02-26T05:53:21.634Z,95679.06
2023-02-26T05:55:50.413Z,95686.72
2023-02-26T05:58:18.213Z,95682.88
2023-02-26T06:00:46.056Z,95681.19
2023-02-26T06:03:13.927Z,95680.88
2023-02-26T06:05:43.101Z,95681.44
2023-02-26T06:08:12.105Z,95691.72
2023-02-26T06:10:39.947Z,95681.13
2023-02-26T06:13:07.836Z,95685.69
2023-02-26T06:15:36.030Z,95688.28
2023-02-26T06:18:03.857Z,95683.22
2023-02-26T06:20:31.623Z,95684.56
2023-02-26T06:23:00.817Z,95691.28
2023-02-26T06:25:28.574Z,95699.66
2023-02-26T06:27:56.359Z,95707.91
2023-02-26T06:30:24.757Z,95708.59
2023-02-26T06:32:52.678Z,95699.97
2023-02-26T06:35:20.509Z,95716.28
2023-02-26T06:37:48.288Z,95724.00
2023-02-26T06:40:18.277Z,95723.00
2023-02-26T06:42:46.054Z,95727.75
2023-02-26T06:45:13.923Z,95729.59
2023-02-26T06:47:41.824Z,95735.69
2023-02-26T06:50:11.092Z,95739.94
2023-02-26T06:52:38.853Z,95751.16
2023-02-26T06:55:07.485Z,95746.97
2023-02-26T06:57:36.693Z,95745.16
2023-02-26T07:00:06.045Z,95755.41
2023-02-26T07:02:34.215Z,95751.94
2023-02-26T07:05:02.137Z,95745.66
2023-02-26T07:07:29.926Z,95753.66
2023-02-26T07:09:57.772Z,95761.13
2023-02-26T07:12:25.514Z,95768.75
2023-02-26T07:14:54.672Z,95774.69
2023-02-26T07:17:22.687Z,95781.19
2023-02-26T07:19:52.597Z,95779.59
2023-02-26T07:22:22.217Z,95780.34
2023-02-26T07:24:51.289Z,95784.75
2023-02-26T07:27:19.198Z,95781.19
2023-02-26T07:29:46.954Z,95780.50
2023-02-26T07:32:16.082Z,95781.78
2023-02-26T07:34:43.994Z,95784.44
2023-02-26T07:37:11.755Z,95785.84
2023-02-26T07:39:39.565Z,95796.31
2023-02-26T07:42:07.365Z,95799.38
2023-02-26T07:44:35.134Z,95800.97
2023-02-26T07:47:03.051Z,95813.47
2023-02-26T07:49:34.022Z,95819.94
2023-02-26T07:52:02.583Z,95823.81
2023-02-26T07:54:30.355Z,95827.53
2023-02-26T07:56:58.204Z,95828.25
2023-02-26T07:59:25.932Z,95839.50
2023-02-26T08:01:53.696Z,95841.66
2023-02-26T08:04:21.519Z,95846.28
2023-02-26T08:06:50.676Z,95845.06
2023-02-26T08:09:19.054Z,95843.47
2023-02-26T08:11:47.828Z,95839.59
2023-02-26T08:14:19.962Z,95844.66
2023-02-26T08:16:47.767Z,95851.56
2023-02-26T08:19:15.592Z,95846.34
2023-02-26T08:21:43.322Z,95852.72
2023-02-26T08:24:13.616Z,95853.53
2023-02-26T08:26:41.456Z,95852.44
2023-02-26T08:29:09.632Z,95853.25
2023-02-26T08:31:37.616Z,95847.47
2023-02-26T08:34:05.587Z,95850.47
2023-02-26T08:36:33.624Z,95854.34
2023-02-26T08:39:01.976Z,95852.09
2023-02-26T08:41:32.374Z,95856.16
2023-02-26T08:44:01.217Z,95850.31
2023-02-26T08:46:29.833Z,95857.25
2023-02-26T08:48:57.997Z,95861.34
2023-02-26T08:51:26.367Z,95857.94
2023-02-26T08:53:54.250Z,95863.03
2023-02-26T08:56:22.082Z,95870.00
2023-02-26T08:58:51.186Z,95866.06
2023-02-26T09:01:18.987Z,95872.66
2023-02-26T09:03:46.768Z,95875.09
2023-02-26T09:06:15.819Z,95879.63
2023-02-26T09:08:43.601Z,95883.47
2023-02-26T09:11:11.415Z,95879.00
2023-02-26T09:13:39.431Z,95886.69
2023-02-26T09:16:09.163Z,95881.66
2023-02-26T09:18:37.231Z,95892.72
2023-02-26T09:21:05.538Z,95884.22
2023-02-26T09:23:33.287Z,95895.19
2023-02-26T09:26:01.419Z,95897.34
2023-02-26T09:28:29.235Z,95899.25
2023-02-26T09:30:57.406Z,95908.53
2023-02-26T09:33:26.726Z,95920.03
2023-02-26T09:35:54.546Z,95911.84
2023-02-26T09:38:22.278Z,95915.28
2023-02-26T09:40:54.144Z,95910.59
2023-02-26T09:43:53.061Z,95913.25
2023-02-26T09:46:30.423Z,95912.19
2023-02-26T09:49:08.853Z,95909.44
2023-02-26T09:51:38.546Z,95913.16
2023-02-26T09:54:17.125Z,95912.66
2023-02-26T09:56:46.396Z,95912.44
2023-02-26T09:59:14.244Z,95915.00
2023-02-26T10:01:49.961Z,95918.44
2023-02-26T10:04:26.764Z,95912.50
2023-02-26T10:07:16.334Z,95911.94
2023-02-26T10:09:55.090Z,95930.06
2023-02-26T10:12:25.957Z,95932.78
2023-02-26T10:14:59.677Z,95937.53
2023-02-26T10:17:34.497Z,95931.47
2023-02-26T10:20:11.412Z,95930.22
2023-02-26T10:22:47.159Z,95933.69
2023-02-26T10:25:23.577Z,95935.03
2023-02-26T10:28:00.269Z,95935.25
2023-02-26T10:30:36.139Z,95933.44
2023-02-26T10:33:14.204Z,95931.81
2023-02-26T10:35:52.085Z,95937.19
2023-02-26T10:38:24.515Z,95927.94
2023-02-26T10:40:57.186Z,95938.09
2023-02-26T10:43:30.851Z,95922.38
2023-02-26T10:46:11.660Z,95947.38
2023-02-26T10:49:00.494Z,95936.75
2023-02-26T10:51:35.557Z,95934.41
2023-02-26T10:54:11.746Z,95932.06
2023-02-26T10:56:39.454Z,95924.91
2023-02-26T10:59:07.282Z,95923.59
2023-02-26T11:01:35.319Z,95923.53
2023-02-26T11:04:06.738Z,95916.19
2023-02-26T11:06:40.608Z,95922.00
2023-02-26T11:09:21.185Z,95917.78
2023-02-26T11:11:53.131Z,95910.41
2023-02-26T11:14:21.914Z,95913.84
2023-02-26T11:16:53.761Z,95927.72
2023-02-26T11:19:27.689Z,95911.22
2023-02-26T11:21:57.433Z,95914.13
2023-02-26T11:24:32.044Z,95919.22
2023-02-26T11:27:03.971Z,95917.16
2023-02-26T11:29:39.108Z,95919.28
2023-02-26T11:32:08.099Z,95929.69
2023-02-26T11:34:36.580Z,95924.63
2023-02-26T11:37:06.820Z,95921.19
2023-02-26T11:39:37.202Z,95925.19
2023-02-26T11:42:08.609Z,95936.94
2023-02-26T11:44:39.735Z,95932.47
2023-02-26T11:47:12.793Z,95935.38
2023-02-26T11:49:44.368Z,95943.66
2023-02-26T11:52:23.460Z,95940.47
2023-02-26T11:54:55.224Z,95946.31
2023-02-26T11:57:27.043Z,95950.81
2023-02-26T11:59:56.698Z,95947.59
2023-02-26T12:02:27.865Z,95953.19
2023-02-26T12:05:03.540Z,95955.28
2023-02-26T12:07:32.968Z,95950.78
2023-02-26T12:10:00.862Z,95947.88
2023-02-26T12:12:50.812Z,95951.31
2023-02-26T12:15:32.992Z,95955.25
2023-02-26T12:18:30.237Z,95954.75
2023-02-26T12:21:15.214Z,95954.56
2023-02-26T12:24:07.219Z,95953.00
2023-02-26T12:26:38.547Z,95956.44
2023-02-26T12:29:53.974Z,95955.66
2023-02-26T12:32:34.595Z,95955.94
2023-02-26T12:35:29.264Z,95952.22
2023-02-26T12:38:18.172Z,95947.44
2023-02-26T12:41:09.641Z,95942.09
2023-02-26T12:43:46.299Z,95933.59
2023-02-26T12:46:25.406Z,95938.34
2023-02-26T12:49:13.045Z,95935.44
2023-02-26T12:52:02.543Z,95946.88
2023-02-26T12:55:00.602Z,95930.09
2023-02-26T12:58:07.084Z,95930.59
2023-02-26T13:00:51.223Z,95933.28
2023-02-26T13:03:45.843Z,95941.28
2023-02-26T13:06:46.929Z,95943.72
2023-02-26T13:09:26.318Z,95929.84
2023-02-26T13:12:04.956Z,95933.06
2023-02-26T13:14:46.475Z,95947.19
2023-02-26T13:17:24.649Z,95934.66
2023-02-26T13:19:56.426Z,95945.06
2023-02-26T13:22:29.097Z,95946.41
2023-02-26T13:25:01.302Z,95943.97
2023-02-26T13:27:34.739Z,95955.16
2023-02-26T13:30:18.322Z,95938.88
2023-02-26T13:32:48.858Z,95946.91
2023-02-26T13:35:23.354Z,95938.38
2023-02-26T13:37:54.162Z,95946.63
2023-02-26T13:40:51.995Z,95959.72
2023-02-26T13:43:46.618Z,95942.91
2023-02-26T13:46:30.799Z,95942.66
2023-02-26T13:49:06.577Z,95943.72
2023-02-26T13:51:37.885Z,95957.28
2023-02-26T13:54:10.114Z,95957.06
2023-02-26T13:56:49.975Z,95961.31
2023-02-26T13:59:36.330Z,95963.69
2023-02-26T14:02:36.181Z,95963.72
2023-02-26T14:05:11.176Z,95954.66
2023-02-26T14:07:49.295Z,95964.25
2023-02-26T14:10:25.969Z,95967.47
2023-02-26T14:13:05.089Z,95957.31
2023-02-26T14:15:43.416Z,95967.72
2023-02-26T14:18:30.762Z,95967.19
2023-02-26T14:21:29.598Z,95960.00
2023-02-26T14:23:59.094Z,95969.06
2023-02-26T14:26:29.944Z,95979.19
2023-02-26T14:29:08.044Z,95975.72
2023-02-26T14:31:55.261Z,95982.63
2023-02-26T14:34:26.397Z,95985.34
2023-02-26T14:36:57.318Z,95980.81
2023-02-26T14:39:36.895Z,95981.84
2023-02-26T14:42:08.012Z,95978.13
2023-02-26T14:44:42.574Z,95983.19
2023-02-26T14:47:11.733Z,95988.50
2023-02-26T14:49:43.101Z,95983.19
2023-02-26T14:52:34.159Z,95988.53
2023-02-26T14:55:19.866Z,95998.13
2023-02-26T14:57:59.772Z,95988.25
2023-02-26T15:00:35.055Z,95996.00
2023-02-26T15:03:34.421Z,95999.19
2023-02-26T15:06:19.401Z,96005.59
2023-02-26T15:09:03.186Z,96015.72
2023-02-26T15:11:53.578Z,96013.31
2023-02-26T15:14:47.351Z,96018.41
2023-02-26T15:17:27.765Z,96020.25
2023-02-26T15:20:06.734Z,96014.94
2023-02-26T15:22:52.520Z,96009.84
2023-02-26T15:25:30.423Z,96013.06
2023-02-26T15:27:58.560Z,96015.75
2023-02-26T15:30:26.997Z,96025.84
2023-02-26T15:32:58.926Z,96020.00
2023-02-26T15:35:30.425Z,96027.47
2023-02-26T15:38:04.117Z,96050.69
2023-02-26T15:40:34.893Z,96050.41
2023-02-26T15:43:04.004Z,96045.88
2023-02-26T15:45:36.032Z,96061.09
2023-02-26T15:48:07.990Z,96060.78
2023-02-26T15:50:41.725Z,96062.38
2023-02-26T15:53:18.105Z,96068.72
2023-02-26T15:55:50.926Z,96067.63
2023-02-26T15:58:23.181Z,96068.66
2023-02-26T16:00:55.683Z,96063.56
2023-02-26T16:03:28.254Z,96072.88
2023-02-26T16:05:56.756Z,96075.78
2023-02-26T16:08:26.950Z,96079.47
2023-02-26T16:10:59.861Z,96081.06
2023-02-26T16:13:32.945Z,96079.72
2023-02-26T16:16:04.072Z,96079.47
2023-02-26T16:18:33.773Z,96101.25
2023-02-26T16:21:05.120Z,96089.28
2023-02-26T16:25:56.598Z,96102.97
2023-02-26T16:28:29.168Z,96105.25
2023-02-26T16:31:00.544Z,96106.97
2023-02-26T16:33:28.941Z,96109.88
2023-02-26T16:36:04.175Z,96114.13
2023-02-26T16:38:34.379Z,96116.09
2023-02-26T16:41:11.064Z,96119.91
2023-02-26T16:43:52.367Z,96132.13
2023-02-26T16:46:27.913Z,96133.50
2023-02-26T16:48:59.023Z,96145.66
2023-02-26T16:51:33.724Z,96151.25
2023-02-26T16:54:07.589Z,96148.47
2023-02-26T16:56:43.184Z,96150.28
2023-02-26T16:59:16.110Z,96151.00
2023-02-26T17:01:51.272Z,96156.97
2023-02-26T17:04:24.146Z,96171.72
2023-02-26T17:06:53.212Z,96173.22
2023-02-26T17:09:44.240Z,96174.22
2023-02-26T17:12:16.373Z,96165.50
2023-02-26T17:14:49.911Z,96183.38
2023-02-26T17:17:18.171Z,96183.22
2023-02-26T17:19:45.923Z,96185.03
2023-02-26T17:22:16.800Z,96178.91
2023-02-26T17:25:17.711Z,96176.16
2023-02-26T17:27:47.899Z,96187.78
2023-02-26T17:30:20.076Z,96181.09
2023-02-26T17:32:48.168Z,96203.50
2023-02-26T17:35:17.040Z,96198.63
2023-02-26T17:37:46.912Z,96208.06
2023-02-26T17:40:21.567Z,96214.31
2023-02-26T17:42:51.918Z,96208.72
2023-02-26T17:45:21.116Z,96221.91
2023-02-26T17:47:50.134Z,96216.22
2023-02-26T17:50:31.815Z,96222.56
2023-02-26T17:52:59.568Z,96229.97
2023-02-26T17:55:27.519Z,96237.34
2023-02-26T17:57:57.376Z,96227.25
2023-02-26T18:00:25.726Z,96229.31
2023-02-26T18:02:53.723Z,96233.59
2023-02-26T18:05:21.639Z,96232.22
2023-02-26T18:07:50.095Z,96234.25
2023-02-26T18:10:20.444Z,96234.53
2023-02-26T18:12:48.815Z,96231.59
2023-02-26T18:15:18.237Z,96246.69
2023-02-26T18:17:45.975Z,96238.16
2023-02-26T18:20:22.318Z,96238.78
2023-02-26T18:22:50.468Z,96232.22
2023-02-26T18:25:18.853Z,96249.19
2023-02-26T18:27:50.965Z,96246.47
2023-02-26T18:30:25.357Z,96247.25
2023-02-26T18:32:53.205Z,96242.34
2023-02-26T18:35:21.075Z,96246.38
2023-02-26T18:37:48.911Z,96233.59
2023-02-26T18:40:18.617Z,96241.38
2023-02-26T18:42:46.332Z,96238.25
2023-02-26T18:45:14.058Z,96247.03
2023-02-26T18:47:44.643Z,96248.63
2023-02-26T18:50:14.119Z,96246.69
2023-02-26T18:52:43.325Z,96248.63
2023-02-26T18:55:12.061Z,96248.63
2023-02-26T18:57:40.355Z,96248.28
2023-02-26T19:00:13.832Z,96246.28
2023-02-26T19:02:44.275Z,96252.66
2023-02-26T19:05:12.813Z,96249.28
2023-02-26T19:07:42.548Z,96251.69
2023-02-26T19:10:14.664Z,96250.69
2023-02-26T19:12:42.514Z,96251.34
2023-02-26T19:15:12.643Z,96257.53
2023-02-26T19:17:41.018Z,96248.19
2023-02-26T19:20:11.705Z,96254.31
2023-02-26T19:22:39.824Z,96258.25
2023-02-26T19:25:08.675Z,96263.72
2023-02-26T19:27:36.676Z,96257.31
2023-02-26T19:30:04.886Z,96253.13
2023-02-26T19:32:32.843Z,96266.81
2023-02-26T19:35:00.784Z,96266.94
2023-02-26T19:37:29.953Z,96277.56
2023-02-26T19:39:57.942Z,96262.63
2023-02-26T19:42:28.354Z,96281.66
2023-02-26T19:44:56.343Z,96279.25
2023-02-26T19:47:24.702Z,96273.97
2023-02-26T19:49:52.460Z,96282.47
2023-02-26T19:52:20.270Z,96286.75
2023-02-26T19:54:49.332Z,96278.38
2023-02-26T19:57:17.112Z,96284.88
2023-02-26T19:59:45.045Z,96296.84
2023-02-26T20:02:12.797Z,96295.25
2023-02-26T20:04:40.487Z,96301.97
2023-02-26T20:07:08.490Z,96315.41
2023-02-26T20:09:36.310Z,96305.00
2023-02-26T20:12:06.005Z,96327.69
2023-02-26T20:14:33.957Z,96329.53
2023-02-26T20:17:02.057Z,96333.19
2023-02-26T20:19:29.803Z,96332.50
2023-02-26T20:21:57.718Z,96328.59
2023-02-26T20:24:26.390Z,96331.22
2023-02-26T20:26:54.157Z,96326.78
2023-02-26T20:29:23.555Z,96344.88
2023-02-26T20:31:51.761Z,96337.16
2023-02-26T20:34:22.243Z,96339.97
2023-02-26T20:36:50.669Z,96324.78
2023-02-26T20:39:19.388Z,96336.69
2023-02-26T20:41:47.208Z,96337.50
2023-02-26T20:44:14.944Z,96340.06
2023-02-26T20:46:44.116Z,96344.56
2023-02-26T20:49:12.239Z,96359.69
2023-02-26T20:51:41.011Z,96357.50
2023-02-26T20:54:09.075Z,96354.69
2023-02-26T20:56:37.181Z,96365.53
2023-02-26T20:59:05.439Z,96361.91
2023-02-26T21:01:36.256Z,96358.53
2023-02-26T21:04:07.841Z,96362.56
2023-02-26T21:06:36.771Z,96364.81
2023-02-26T21:09:06.658Z,96356.69
2023-02-26T21:11:36.641Z,96355.69
2023-02-26T21:14:06.674Z,96362.25
2023-02-26T21:16:34.640Z,96362.72
2023-02-26T21:19:03.741Z,96363.53
2023-02-26T21:21:33.318Z,96362.34
2023-02-26T21:24:01.232Z,96356.69
2023-02-26T21:26:29.000Z,96362.47
2023-02-26T21:28:56.743Z,96366.78
2023-02-26T21:31:24.570Z,96374.41
2023-02-26T21:33:52.385Z,96370.03
2023-02-26T21:36:21.338Z,96375.63
2023-02-26T21:38:51.051Z,96375.16
2023-02-26T21:41:18.833Z,96373.34
2023-02-26T21:43:47.708Z,96375.66
2023-02-26T21:46:15.469Z,96386.50
2023-02-26T21:48:46.148Z,96382.81
2023-02-26T21:51:15.446Z,96378.56
2023-02-26T21:53:45.250Z,96385.56
2023-02-26T21:56:14.394Z,96386.03
2023-02-26T21:58:42.522Z,96381.31
2023-02-26T22:01:10.708Z,96377.84
2023-02-26T22:03:39.611Z,96375.63
2023-02-26T22:06:08.079Z,96376.88
2023-02-26T22:08:36.338Z,96379.25
2023-02-26T22:11:04.101Z,96379.03
2023-02-26T22:13:33.517Z,96386.06
2023-02-26T22:16:01.483Z,96383.59
2023-02-26T22:18:29.225Z,96374.47
2023-02-26T22:20:56.974Z,96382.97
2023-02-26T22:23:24.730Z,96383.78
2023-02-26T22:25:52.461Z,96383.78
2023-02-26T22:28:20.212Z,96381.47
2023-02-26T22:30:49.362Z,96379.84
2023-02-26T22:33:17.122Z,96386.00
2023-02-26T22:35:45.490Z,96384.75
2023-02-26T22:38:13.232Z,96392.88
2023-02-26T22:40:41.177Z,96389.31
2023-02-26T22:43:09.108Z,96391.06
2023-02-26T22:45:36.984Z,96390.13
2023-02-26T22:48:06.468Z,96393.84
2023-02-26T22:50:34.257Z,96397.06
2023-02-26T22:53:02.508Z,96393.72
2023-02-26T22:55:30.569Z,96391.16
2023-02-26T22:57:58.641Z,96392.88
2023-02-26T23:00:27.720Z,96388.91
2023-02-26T23:02:55.492Z,96396.56
2023-02-26T23:05:24.592Z,96398.63
2023-02-26T23:07:52.346Z,96396.31
2023-02-26T23:10:21.410Z,96395.06
2023-02-26T23:12:49.742Z,96398.03
2023-02-26T23:15:17.689Z,96400.69
2023-02-26T23:17:45.559Z,96394.00
2023-02-26T23:20:14.916Z,96401.25
2023-02-26T23:22:44.581Z,96398.13
2023-02-26T23:25:13.055Z,96396.84
2023-02-26T23:27:41.533Z,96393.66
2023-02-26T23:30:10.702Z,96398.03
2023-02-26T23:32:38.618Z,96399.06
2023-02-26T23:35:07.471Z,96398.94
2023-02-26T23:37:35.189Z,96396.84
2023-02-26T23:40:05.282Z,96402.88
2023-02-26T23:42:33.017Z,96393.53
2023-02-26T23:45:00.736Z,96410.03
2023-02-26T23:47:28.468Z,96404.53
2023-02-26T23:49:56.173Z,96399.38
2023-02-26T23:52:25.614Z,96405.97
2023-02-26T23:54:54.396Z,96402.28
2023-02-26T23:57:23.652Z,96403.47
2023-02-26T23:59:51.726Z,96404.72
